Time;durP1;ratioP1;P1;durP2;ratioP2;P2;SDS_P1;SDS_P2;PMS_P1;PMS_P2;Temp;Humidity;BMP_temperature;BMP_pressure;BME280_temperature;BME280_humidity;BME280_pressure;Samples;Min_cycle;Max_cycle;Signal;HPM_P1;HPM_P2
2022/03/14 00:02:17;;;;;;;15.48;10.13;;;;;;;10.01;45.81;102654.34;5071757;28;20049;-61
2022/03/14 00:04:43;;;;;;;17.17;10.85;;;;;;;10.03;45.66;102647.31;5071554;28;20083;-61
2022/03/14 00:07:11;;;;;;;17.13;11.57;;;;;;;10.05;45.73;102649.88;5071221;28;20472;-61
2022/03/14 00:09:38;;;;;;;19.48;12.70;;;;;;;10.06;45.68;102646.38;5071563;28;20401;-60
2022/03/14 00:12:07;;;;;;;22.83;13.95;;;;;;;10.06;45.54;102646.38;5071428;28;20076;-60
2022/03/14 00:14:33;;;;;;;19.30;12.68;;;;;;;10.08;45.52;102644.56;5070232;28;20463;-59
2022/03/14 00:17:05;;;;;;;14.27;10.05;;;;;;;10.09;45.22;102641.03;5072711;28;20102;-60
2022/03/14 00:19:32;;;;;;;14.60;9.00;;;;;;;10.10;45.26;102645.41;5074631;28;20040;-60
2022/03/14 00:22:00;;;;;;;18.45;10.95;;;;;;;10.07;45.13;102648.97;5074266;28;20052;-60
2022/03/14 00:24:26;;;;;;;15.80;11.27;;;;;;;10.07;45.13;102662.06;5074372;28;20095;-60
2022/03/14 00:26:54;;;;;;;20.77;10.32;;;;;;;10.06;45.00;102665.59;5074284;28;20049;-60
2022/03/14 00:29:21;;;;;;;12.88;9.10;;;;;;;10.04;45.07;102651.63;5074406;28;20048;-60
2022/03/14 00:31:47;;;;;;;19.52;12.68;;;;;;;10.02;44.98;102649.94;5073012;28;20109;-60
2022/03/14 00:34:14;;;;;;;19.98;13.05;;;;;;;10.03;44.95;102649.06;5074186;28;20576;-60
2022/03/14 00:36:42;;;;;;;16.20;12.05;;;;;;;10.02;45.04;102668.31;5073862;28;20040;-60
2022/03/14 00:39:09;;;;;;;13.52;11.15;;;;;;;10.02;45.04;102668.31;5074394;28;20048;-60
2022/03/14 00:41:36;;;;;;;18.95;10.98;;;;;;;9.98;44.84;102672.78;5074236;28;20125;-60
2022/03/14 00:44:03;;;;;;;12.32;9.50;;;;;;;9.96;44.94;102677.19;5074116;28;20106;-60
2022/03/14 00:46:31;;;;;;;12.05;9.25;;;;;;;9.99;45.03;102664.00;5074112;28;20053;-60
2022/03/14 00:48:57;;;;;;;13.52;9.30;;;;;;;9.99;45.01;102671.88;5072860;28;20044;-60
2022/03/14 00:51:24;;;;;;;14.45;9.60;;;;;;;9.99;44.97;102671.00;5073538;28;20053;-60
2022/03/14 00:53:51;;;;;;;12.02;8.60;;;;;;;9.96;45.06;102675.41;5073889;28;20056;-60
2022/03/14 00:56:20;;;;;;;12.30;8.57;;;;;;;9.96;44.93;102675.41;5074172;28;20045;-61
2022/03/14 00:58:47;;;;;;;11.25;8.45;;;;;;;9.96;45.25;102674.56;5073875;28;20040;-60
2022/03/14 01:01:13;;;;;;;13.20;8.70;;;;;;;9.97;44.95;102668.44;5073665;28;20489;-60
2022/03/14 01:03:40;;;;;;;10.45;8.43;;;;;;;9.97;45.08;102676.31;5073708;28;20048;-60
2022/03/14 01:06:07;;;;;;;12.55;8.73;;;;;;;9.96;45.01;102666.69;5072191;28;20041;-60
2022/03/14 01:08:33;;;;;;;11.60;9.25;;;;;;;9.95;45.04;102675.47;5073521;28;20485;-60
2022/03/14 01:11:00;;;;;;;16.52;8.95;;;;;;;9.94;45.04;102673.72;5073473;28;20051;-60
2022/03/14 01:13:27;;;;;;;11.65;8.35;;;;;;;9.94;45.28;102674.63;5073409;28;20041;-60
2022/03/14 01:15:54;;;;;;;10.82;8.45;;;;;;;9.94;45.04;102676.34;5073520;28;20455;-61
2022/03/14 01:18:21;;;;;;;11.05;8.45;;;;;;;9.93;45.05;102686.00;5073423;28;20131;-60
2022/03/14 01:20:47;;;;;;;10.98;8.38;;;;;;;9.91;45.05;102682.53;5073364;28;20048;-63
2022/03/14 01:23:14;;;;;;;13.23;8.73;;;;;;;9.88;45.13;102672.13;5072381;28;20047;-61
2022/03/14 01:25:42;;;;;;;13.10;9.07;;;;;;;9.88;44.99;102666.00;5073179;28;20060;-63
2022/03/14 01:28:09;;;;;;;12.48;9.35;;;;;;;9.89;45.16;102663.38;5073030;28;20094;-63
2022/03/14 01:30:37;;;;;;;13.35;8.73;;;;;;;9.91;45.03;102660.69;5072924;28;20060;-60
2022/03/14 01:33:04;;;;;;;12.50;8.77;;;;;;;9.89;45.12;102668.63;5071862;28;20047;-61
2022/03/14 01:35:30;;;;;;;12.95;9.05;;;;;;;9.87;45.19;102666.91;5072494;28;20405;-60
2022/03/14 01:37:57;;;;;;;11.45;9.07;;;;;;;9.86;45.27;102668.66;5072511;28;20105;-63
2022/03/14 01:40:24;;;;;;;15.20;8.80;;;;;;;9.87;45.34;102665.16;5072289;28;20049;-60
2022/03/14 01:42:51;;;;;;;13.02;9.32;;;;;;;9.88;45.29;102666.88;5072914;28;20072;-60
2022/03/14 01:45:19;;;;;;;13.63;9.68;;;;;;;9.87;45.47;102680.03;5072740;28;20114;-62
2022/03/14 01:47:47;;;;;;;14.25;9.65;;;;;;;9.87;45.48;102678.25;5071729;28;20040;-60
2022/03/14 01:50:14;;;;;;;13.00;9.80;;;;;;;9.86;45.40;102681.78;5072816;28;20409;-60
2022/03/14 01:52:43;;;;;;;11.45;9.10;;;;;;;9.86;45.55;102694.03;5072421;28;20090;-61
2022/03/14 01:55:11;;;;;;;14.88;8.90;;;;;;;9.85;45.65;102695.78;5072420;28;20075;-60
2022/03/14 01:57:38;;;;;;;12.07;8.93;;;;;;;9.85;45.32;102697.53;5072774;28;20044;-60
2022/03/14 02:00:07;;;;;;;13.68;9.23;;;;;;;9.84;45.35;102690.56;5073004;28;20057;-60
2022/03/14 02:02:34;;;;;;;11.57;8.73;;;;;;;9.82;45.50;102682.75;5072624;28;20041;-62
2022/03/14 02:05:01;;;;;;;10.70;8.50;;;;;;;9.80;45.17;102688.03;5071738;28;20624;-60
2022/03/14 02:07:28;;;;;;;11.48;8.50;;;;;;;9.82;45.41;102689.75;5072472;28;20070;-61
2022/03/14 02:09:54;;;;;;;12.68;8.80;;;;;;;9.79;45.48;102685.44;5072413;28;20048;-60
2022/03/14 02:12:21;;;;;;;13.85;9.25;;;;;;;9.77;45.65;102685.47;5072332;28;20416;-61
2022/03/14 02:14:48;;;;;;;12.35;8.68;;;;;;;9.75;45.65;102692.50;5072429;28;20045;-60
2022/03/14 02:17:18;;;;;;;14.85;9.15;;;;;;;9.76;45.88;102701.22;5072117;28;20048;-61
2022/03/14 02:19:45;;;;;;;13.98;9.20;;;;;;;9.72;45.75;102704.81;5072049;28;20546;-60
2022/03/14 02:22:14;;;;;;;14.57;9.13;;;;;;;9.70;45.91;102703.97;5072016;28;20063;-60
2022/03/14 02:24:42;;;;;;;12.30;9.43;;;;;;;9.69;45.74;102707.50;5071911;28;20052;-60
2022/03/14 02:27:09;;;;;;;13.45;9.60;;;;;;;9.68;45.86;102705.78;5072204;28;20044;-60
2022/03/14 02:29:35;;;;;;;10.95;8.77;;;;;;;9.69;45.90;102710.13;5071767;28;20048;-60
2022/03/14 02:32:02;;;;;;;13.27;9.07;;;;;;;9.67;46.04;102711.91;5071528;28;20076;-59
2022/03/14 02:34:29;;;;;;;11.32;9.43;;;;;;;9.64;46.16;102712.84;5072138;28;20044;-62
2022/03/14 02:36:55;;;;;;;12.20;8.85;;;;;;;9.62;46.14;102709.38;5072106;28;20052;-60
2022/03/14 02:39:22;;;;;;;14.95;9.57;;;;;;;9.64;45.98;102705.84;5071161;28;20098;-60
2022/03/14 02:41:49;;;;;;;12.82;9.13;;;;;;;9.62;46.32;102712.00;5072287;28;20045;-60
2022/03/14 02:44:16;;;;;;;14.25;9.27;;;;;;;9.60;46.46;102711.19;5072487;28;20048;-60
2022/03/14 02:46:42;;;;;;;13.18;9.80;;;;;;;9.59;46.49;102723.41;5071781;28;20049;-60
2022/03/14 02:49:11;;;;;;;13.68;9.88;;;;;;;9.58;46.70;102713.81;5072293;28;20048;-61
2022/03/14 02:51:39;;;;;;;14.65;9.90;;;;;;;9.56;46.71;102699.91;5072011;28;20075;-60
2022/03/14 02:54:08;;;;;;;12.07;9.32;;;;;;;9.58;46.94;102697.25;5071493;28;20048;-61
2022/03/14 02:56:36;;;;;;;13.48;9.40;;;;;;;9.59;46.78;102702.44;5072056;28;20105;-62
2022/03/14 02:59:04;;;;;;;13.32;9.85;;;;;;;9.59;46.61;102710.31;5072107;28;20481;-60
2022/03/14 03:01:31;;;;;;;13.57;9.55;;;;;;;9.56;46.83;102707.78;5071913;28;20048;-60
2022/03/14 03:03:58;;;;;;;13.75;10.20;;;;;;;9.57;46.56;102714.75;5072037;28;20098;-63
2022/03/14 03:06:24;;;;;;;14.38;9.90;;;;;;;9.55;46.59;102713.03;5072113;28;20102;-60
2022/03/14 03:08:52;;;;;;;12.43;9.60;;;;;;;9.55;46.68;102723.50;5071741;28;20500;-60
2022/03/14 03:11:22;;;;;;;13.98;9.95;;;;;;;9.54;46.70;102722.66;5070922;28;20501;-60
2022/03/14 03:13:50;;;;;;;14.52;10.60;;;;;;;9.53;46.67;102707.81;5071814;28;20048;-62
2022/03/14 03:16:16;;;;;;;16.58;10.70;;;;;;;9.53;46.53;102712.22;5072076;28;20053;-60
2022/03/14 03:18:44;;;;;;;14.20;10.88;;;;;;;9.54;46.50;102713.94;5071712;28;20409;-60
2022/03/14 03:21:11;;;;;;;14.98;9.93;;;;;;;9.51;46.54;102725.34;5071875;28;20159;-60
2022/03/14 03:23:41;;;;;;;14.85;10.75;;;;;;;9.49;46.60;102732.38;5071811;28;20493;-63
2022/03/14 03:26:09;;;;;;;14.70;10.63;;;;;;;9.46;46.64;102740.31;5070830;28;20045;-60
2022/03/14 03:28:36;;;;;;;15.40;10.40;;;;;;;9.46;46.73;102741.16;5071865;28;20052;-60
2022/03/14 03:31:07;;;;;;;15.27;10.60;;;;;;;9.45;46.66;102744.66;5075520;28;20110;-60
2022/03/14 03:33:34;;;;;;;16.42;10.23;;;;;;;9.46;46.85;102746.41;5075627;28;20101;-60
2022/03/14 03:36:01;;;;;;;13.77;10.50;;;;;;;9.43;46.93;102740.34;5075254;28;20470;-62
2022/03/14 03:38:28;;;;;;;14.15;10.50;;;;;;;9.45;47.24;102738.56;5075378;28;20451;-60
2022/03/14 03:40:54;;;;;;;13.38;9.98;;;;;;;9.42;47.40;102741.22;5075338;28;20048;-62
2022/03/14 03:43:21;;;;;;;13.95;10.27;;;;;;;9.41;47.45;102750.00;5074303;28;20121;-62
2022/03/14 03:45:48;;;;;;;13.95;10.45;;;;;;;9.41;47.50;102747.41;5075202;28;20094;-60
2022/03/14 03:48:15;;;;;;;15.23;10.93;;;;;;;9.41;47.89;102744.78;5075536;28;20079;-63
2022/03/14 03:50:42;;;;;;;15.02;10.73;;;;;;;9.39;47.88;102746.56;5075082;28;20051;-60
2022/03/14 03:53:09;;;;;;;15.40;10.57;;;;;;;9.38;48.13;102744.81;5075274;28;20459;-60
2022/03/14 03:55:35;;;;;;;13.65;10.23;;;;;;;9.39;48.08;102741.31;5075088;28;20041;-60
2022/03/14 03:58:03;;;;;;;13.63;10.27;;;;;;;9.45;47.79;102749.06;5074911;28;20074;-60
2022/03/14 04:00:30;;;;;;;13.30;9.77;;;;;;;9.41;47.88;102745.63;5074149;28;20095;-63
2022/03/14 04:02:57;;;;;;;12.90;9.93;;;;;;;9.42;47.73;102747.34;5071455;28;20048;-62
2022/03/14 04:05:25;;;;;;;14.15;10.82;;;;;;;9.43;47.41;102742.97;5071404;28;20053;-60
2022/03/14 04:07:54;;;;;;;17.33;10.40;;;;;;;9.43;47.40;102751.72;5071343;28;20045;-60
2022/03/14 04:10:20;;;;;;;17.08;10.77;;;;;;;9.42;47.32;102760.47;5071227;28;20056;-61
2022/03/14 04:12:47;;;;;;;14.48;10.02;;;;;;;9.41;47.35;102761.34;5071339;28;20555;-60
2022/03/14 04:15:15;;;;;;;15.52;9.55;;;;;;;9.40;47.18;102761.38;5071467;28;20131;-60
2022/03/14 04:17:42;;;;;;;14.98;10.20;;;;;;;9.38;47.36;102765.78;5070372;28;20459;-61
2022/03/14 04:20:13;;;;;;;14.02;10.48;;;;;;;9.37;47.23;102766.66;5071356;28;20067;-60
2022/03/14 04:22:40;;;;;;;15.60;10.35;;;;;;;9.36;47.16;102760.56;5071269;28;20486;-63
2022/03/14 04:25:11;;;;;;;14.02;10.13;;;;;;;9.37;47.17;102770.16;5071625;28;20048;-60
2022/03/14 04:27:38;;;;;;;27.20;11.43;;;;;;;9.36;47.48;102778.91;5071033;28;20055;-60
2022/03/14 04:30:05;;;;;;;21.88;11.27;;;;;;;9.35;47.44;102773.72;5070956;28;20075;-60
2022/03/14 04:32:32;;;;;;;22.73;11.45;;;;;;;9.35;47.58;102771.94;5070792;28;20416;-61
2022/03/14 04:34:58;;;;;;;19.83;10.05;;;;;;;9.34;47.80;102778.06;5069975;28;20051;-61
2022/03/14 04:37:25;;;;;;;19.38;11.65;;;;;;;9.33;47.99;102778.94;5070961;28;20040;-60
2022/03/14 04:39:53;;;;;;;39.35;13.65;;;;;;;9.34;47.97;102780.69;5070777;28;20048;-60
2022/03/14 04:42:21;;;;;;;14.13;10.95;;;;;;;9.36;47.95;102783.28;5070032;28;20048;-60
2022/03/14 04:44:49;;;;;;;14.98;10.55;;;;;;;9.35;47.90;102794.66;5071125;28;20117;-60
2022/03/14 04:47:17;;;;;;;17.85;11.05;;;;;;;9.35;48.04;102792.91;5071232;28;20045;-60
2022/03/14 04:49:44;;;;;;;20.10;11.38;;;;;;;9.35;48.00;102781.56;5070474;28;20485;-60
2022/03/14 04:52:10;;;;;;;17.02;11.85;;;;;;;9.35;48.19;102802.53;5069008;28;20098;-60
2022/03/14 04:54:39;;;;;;;17.38;11.85;;;;;;;9.34;48.06;102801.66;5070309;28;20550;-60
2022/03/14 04:57:06;;;;;;;17.73;11.88;;;;;;;9.33;48.23;102799.91;5070613;28;20059;-60
2022/03/14 04:59:33;;;;;;;14.35;11.57;;;;;;;9.34;48.13;102800.78;5070039;28;20040;-60
2022/03/14 05:01:59;;;;;;;17.15;10.82;;;;;;;9.32;48.20;102804.31;5069806;28;20060;-60
2022/03/14 05:04:26;;;;;;;16.98;11.43;;;;;;;9.31;48.06;102814.81;5069725;28;20052;-60
2022/03/14 05:06:53;;;;;;;14.40;10.60;;;;;;;9.29;48.21;102822.72;5069804;28;20091;-60
2022/03/14 05:09:19;;;;;;;16.40;11.32;;;;;;;9.27;48.21;102826.25;5068987;28;20087;-60
2022/03/14 05:11:47;;;;;;;15.68;11.13;;;;;;;9.26;48.36;102827.13;5069938;28;20045;-60
2022/03/14 05:14:15;;;;;;;17.63;11.38;;;;;;;9.24;48.36;102827.16;5069946;28;20045;-60
2022/03/14 05:16:43;;;;;;;21.48;11.38;;;;;;;9.23;48.38;102835.03;5069732;28;20091;-60
2022/03/14 05:19:09;;;;;;;18.42;11.55;;;;;;;9.20;48.47;102838.56;5069687;28;20473;-60
2022/03/14 05:21:36;;;;;;;18.75;12.05;;;;;;;9.17;48.87;102841.25;5069800;28;20053;-60
2022/03/14 05:24:02;;;;;;;19.27;11.90;;;;;;;9.17;48.96;102840.38;5069087;28;20103;-60
2022/03/14 05:26:29;;;;;;;17.15;11.25;;;;;;;9.14;48.90;102834.31;5050066;28;20111;-60
2022/03/14 05:28:57;;;;;;;21.83;11.68;;;;;;;9.13;49.28;102844.81;5058715;28;20378;-60
2022/03/14 05:31:24;;;;;;;23.48;13.05;;;;;;;9.10;49.25;102840.50;5069786;28;20510;-61
2022/03/14 05:33:50;;;;;;;20.08;11.10;;;;;;;9.11;49.34;102852.69;5069886;28;20477;-60
2022/03/14 05:36:17;;;;;;;16.45;11.40;;;;;;;9.10;49.65;102856.22;5070021;28;20067;-61
2022/03/14 05:38:45;;;;;;;16.67;11.05;;;;;;;9.12;49.95;102853.56;5070015;28;20101;-60
2022/03/14 05:41:12;;;;;;;17.23;10.90;;;;;;;9.13;49.73;102856.16;5068707;28;20068;-60
2022/03/14 05:43:38;;;;;;;16.08;11.60;;;;;;;9.12;50.16;102861.41;5069501;28;20049;-60
2022/03/14 05:46:07;;;;;;;18.45;11.75;;;;;;;9.13;50.38;102866.63;5069705;28;20045;-60
2022/03/14 05:48:35;;;;;;;16.27;11.85;;;;;;;9.15;50.42;102866.59;5069711;28;20044;-61
2022/03/14 05:51:07;;;;;;;16.30;11.80;;;;;;;9.15;50.52;102869.22;5069170;28;20056;-61
2022/03/14 05:53:34;;;;;;;17.60;11.85;;;;;;;9.18;50.63;102869.19;5068844;28;20048;-61
2022/03/14 05:56:01;;;;;;;19.85;13.48;;;;;;;9.19;50.57;102870.88;5068846;28;20048;-60
2022/03/14 05:58:27;;;;;;;14.30;9.88;;;;;;;9.27;50.95;102876.03;5067986;28;20048;-60
2022/03/14 06:00:54;;;;;;;19.45;12.50;;;;;;;9.57;50.53;102877.25;5069136;28;20045;-64
2022/03/14 06:03:21;;;;;;;16.73;12.30;;;;;;;9.47;50.95;102886.16;5067955;28;20045;-60
2022/03/14 06:05:54;;;;;;;14.93;11.05;;;;;;;9.43;50.77;102887.09;5068265;28;20413;-60
2022/03/14 06:08:30;;;;;;;16.48;11.70;;;;;;;9.39;50.69;102894.13;5068597;28;20087;-65
2022/03/14 06:11:07;;;;;;;;;;;;;;;9.34;50.61;102900.38;5069025;28;20072;-60
2022/03/14 06:13:35;;;;;;;17.60;11.80;;;;;;;9.37;50.49;102898.56;5068532;28;19920;-61
2022/03/14 06:16:02;;;;;;;15.93;10.98;;;;;;;9.39;50.41;102899.38;5068857;28;20052;-60
2022/03/14 06:18:29;;;;;;;17.52;12.18;;;;;;;9.39;50.41;102899.38;5069191;28;20049;-61
2022/03/14 06:20:57;;;;;;;18.95;12.15;;;;;;;9.38;50.37;102904.66;5067752;28;20131;-65
2022/03/14 06:23:23;;;;;;;20.38;12.02;;;;;;;9.39;50.12;102901.16;5068815;28;20098;-60
2022/03/14 06:25:50;;;;;;;20.70;12.23;;;;;;;9.41;49.95;102908.09;5068308;28;20497;-59
2022/03/14 06:28:17;;;;;;;18.80;12.88;;;;;;;9.44;49.80;102915.88;5069009;28;20086;-60
2022/03/14 06:30:43;;;;;;;17.27;12.40;;;;;;;9.43;49.52;102921.16;5068630;28;20052;-60
2022/03/14 06:33:11;;;;;;;21.27;12.80;;;;;;;9.46;49.39;102924.59;5068251;28;20127;-61
2022/03/14 06:35:38;;;;;;;18.23;12.43;;;;;;;9.51;49.18;102926.28;5068898;28;20041;-60
2022/03/14 06:38:05;;;;;;;17.92;12.80;;;;;;;9.53;48.97;102920.13;5068094;28;20054;-60
2022/03/14 06:40:32;;;;;;;23.17;12.35;;;;;;;9.60;48.95;102920.91;5068883;28;20055;-59
2022/03/14 06:42:59;;;;;;;18.60;12.15;;;;;;;9.65;48.94;102929.53;5068880;28;20101;-60
2022/03/14 06:45:26;;;;;;;22.95;13.38;;;;;;;9.64;49.07;102926.03;5068670;28;20098;-60
2022/03/14 06:47:54;;;;;;;19.65;13.43;;;;;;;9.67;48.90;102919.88;5068663;28;20485;-60
2022/03/14 06:50:22;;;;;;;28.13;13.73;;;;;;;9.69;48.73;102922.47;5068515;28;20053;-60
2022/03/14 06:52:51;;;;;;;23.50;13.27;;;;;;;9.73;48.29;102930.25;5068571;28;20445;-60
2022/03/14 06:55:17;;;;;;;23.02;13.73;;;;;;;9.91;48.28;102929.06;5066996;28;20497;-60
2022/03/14 06:57:44;;;;;;;20.48;13.38;;;;;;;9.88;48.21;102931.75;5068289;28;20044;-61
2022/03/14 07:00:11;;;;;;;21.23;12.43;;;;;;;9.89;48.23;102946.59;5068220;28;20049;-61
2022/03/14 07:02:39;;;;;;;16.52;12.27;;;;;;;9.95;48.07;102945.59;5067266;28;20048;-61
2022/03/14 07:05:07;;;;;;;19.13;11.82;;;;;;;10.08;47.88;102940.97;5070409;28;20101;-61
2022/03/14 07:07:34;;;;;;;17.48;12.38;;;;;;;10.12;47.47;102947.91;5072311;28;20098;-61
2022/03/14 07:10:00;;;;;;;17.33;10.85;;;;;;;10.15;47.22;102944.38;5071818;28;20056;-61
2022/03/14 07:12:44;;;;;;;17.95;12.02;;;;;;;10.15;47.19;102947.00;5070721;28;20052;-61
2022/03/14 07:15:16;;;;;;;18.48;11.48;;;;;;;10.17;47.03;102950.44;5071574;28;20041;-61
2022/03/14 07:17:43;;;;;;;18.13;11.25;;;;;;;10.16;46.86;102960.09;5071372;28;20067;-61
2022/03/14 07:20:11;;;;;;;14.50;10.88;;;;;;;10.17;47.00;102959.19;5071622;28;20041;-68
2022/03/14 07:22:58;;;;;;;15.98;10.60;;;;;;;10.11;46.52;102969.81;5071386;28;20094;-62
2022/03/14 07:25:27;;;;;;;14.48;10.27;;;;;;;10.13;46.53;102971.50;5070121;28;20047;-60
2022/03/14 07:27:56;;;;;;;16.55;10.88;;;;;;;10.12;46.60;102977.63;5068647;28;20071;-61
2022/03/14 07:30:23;;;;;;;14.25;10.15;;;;;;;10.11;46.41;102980.28;5069844;28;20493;-60
2022/03/14 07:32:50;;;;;;;13.65;10.30;;;;;;;10.13;46.17;102974.13;5069940;28;20060;-61
2022/03/14 07:35:17;;;;;;;13.75;10.50;;;;;;;10.19;45.91;102981.00;5068114;28;20417;-61
2022/03/14 07:37:44;;;;;;;16.48;11.00;;;;;;;10.21;46.02;102983.59;5070712;28;20090;-62
2022/03/14 07:40:13;;;;;;;12.77;9.98;;;;;;;10.26;45.79;102980.00;5068970;28;20481;-62
2022/03/14 07:42:47;;;;;;;15.73;9.90;;;;;;;10.31;45.73;102990.41;5070322;28;20090;-61
2022/03/14 07:45:16;;;;;;;14.32;10.52;;;;;;;10.24;45.71;102988.78;5067966;28;20043;-61
2022/03/14 07:47:43;;;;;;;16.48;12.32;;;;;;;10.32;45.64;102992.13;5069474;28;20450;-61
2022/03/14 07:50:13;;;;;;;14.27;11.40;;;;;;;10.41;45.21;102993.72;5070924;28;20060;-61
2022/03/14 07:52:40;;;;;;;26.98;13.77;;;;;;;10.52;44.95;102999.63;5067912;28;20075;-61
2022/03/14 07:55:07;;;;;;;20.05;10.63;;;;;;;10.66;44.62;102994.09;5068900;28;20044;-69
2022/03/14 07:57:35;;;;;;;13.95;10.60;;;;;;;10.81;44.34;102997.34;5071158;28;20055;-60
2022/03/14 08:00:05;;;;;;;15.20;10.43;;;;;;;11.16;43.63;102998.28;5070122;28;20072;-61
2022/03/14 08:02:32;;;;;;;13.45;10.63;;;;;;;11.58;42.89;102998.19;5069190;28;20493;-60
2022/03/14 08:04:58;;;;;;;15.77;10.27;;;;;;;11.92;42.24;103008.72;5070885;28;20078;-61
2022/03/14 08:07:26;;;;;;;13.68;10.02;;;;;;;11.85;42.36;103003.66;5068419;28;20083;-61
2022/03/14 08:09:54;;;;;;;15.10;10.00;;;;;;;11.79;42.58;103009.09;5070490;28;20059;-61
2022/03/14 08:12:22;;;;;;;16.42;10.07;;;;;;;11.74;42.44;103010.06;5071034;28;20045;-62
2022/03/14 08:14:50;;;;;;;12.85;9.63;;;;;;;11.64;43.04;103010.31;5070583;28;20048;-61
2022/03/14 08:17:18;;;;;;;22.10;11.43;;;;;;;11.53;43.38;103013.19;5068702;28;20055;-60
2022/03/14 08:19:45;;;;;;;16.73;10.85;;;;;;;11.45;43.72;103008.13;5069701;28;20044;-61
2022/03/14 08:22:12;;;;;;;16.60;10.65;;;;;;;11.39;43.83;103003.91;5070472;28;20110;-61
2022/03/14 08:24:39;;;;;;;14.45;9.70;;;;;;;11.27;44.10;103015.56;5070625;28;20053;-61
2022/03/14 08:27:05;;;;;;;13.63;9.50;;;;;;;11.20;44.42;103010.47;5069323;28;20044;-61
2022/03/14 08:29:32;;;;;;;13.63;9.13;;;;;;;11.22;44.56;103012.19;5070143;28;20045;-61
2022/03/14 08:32:00;;;;;;;15.23;8.63;;;;;;;11.20;44.99;103011.34;5070426;28;20056;-61
2022/03/14 08:34:27;;;;;;;9.88;7.80;;;;;;;11.11;45.55;103015.03;5070406;28;20052;-61
2022/03/14 08:36:55;;;;;;;14.05;8.43;;;;;;;11.13;45.61;103022.03;5068081;28;20051;-60
2022/03/14 08:39:26;;;;;;;13.95;7.88;;;;;;;11.23;45.55;103023.53;5069183;28;20048;-60
2022/03/14 08:41:52;;;;;;;10.13;7.25;;;;;;;11.26;45.58;103023.47;5069963;28;20485;-64
2022/03/14 08:44:19;;;;;;;11.98;7.15;;;;;;;11.29;45.81;103031.28;5069956;28;20117;-61
2022/03/14 08:46:46;;;;;;;9.82;6.45;;;;;;;11.27;45.92;103026.09;5069705;28;20090;-61
2022/03/14 08:49:13;;;;;;;12.90;7.47;;;;;;;11.33;45.86;103022.44;5069911;28;20075;-61
2022/03/14 08:51:40;;;;;;;10.90;6.72;;;;;;;11.29;45.89;103018.16;5070109;28;20090;-61
2022/03/14 08:54:07;;;;;;;9.25;7.03;;;;;;;11.33;45.77;103018.97;5068641;28;20554;-61
2022/03/14 08:56:34;;;;;;;8.98;6.63;;;;;;;11.38;45.73;103023.19;5069492;28;20044;-61
2022/03/14 08:59:01;;;;;;;10.50;6.18;;;;;;;11.42;45.66;103016.94;5069501;28;20052;-60
2022/03/14 09:01:28;;;;;;;9.35;6.03;;;;;;;11.55;45.33;103009.66;5070057;28;20554;-60
2022/03/14 09:03:55;;;;;;;9.20;5.72;;;;;;;11.61;45.40;103019.16;5069760;28;20505;-69
2022/03/14 09:06:21;;;;;;;14.13;5.93;;;;;;;11.69;45.18;103021.59;5068618;28;20044;-61
2022/03/14 09:08:48;;;;;;;9.60;5.20;;;;;;;11.71;45.17;103025.06;5069128;28;20079;-61
2022/03/14 09:11:15;;;;;;;9.45;6.15;;;;;;;11.71;45.09;103023.28;5069449;28;20045;-61
2022/03/14 09:13:42;;;;;;;10.88;6.60;;;;;;;11.71;45.08;103025.06;5068811;28;20591;-61
2022/03/14 09:16:08;;;;;;;8.23;5.35;;;;;;;11.71;45.20;103023.28;5069078;28;20048;-61
2022/03/14 09:18:36;;;;;;;13.27;5.15;;;;;;;11.78;45.07;103026.63;5069282;28;20101;-61
2022/03/14 09:21:03;;;;;;;7.50;4.47;;;;;;;11.82;44.97;103025.66;5069134;28;20102;-60
2022/03/14 09:23:30;;;;;;;8.73;4.78;;;;;;;11.84;44.93;103026.47;5069483;28;20045;-69
2022/03/14 09:25:57;;;;;;;8.35;4.82;;;;;;;11.85;44.83;103029.97;5068634;28;20053;-58
2022/03/14 09:28:25;;;;;;;12.93;6.78;;;;;;;11.85;44.62;103033.47;5067636;28;20036;-67
2022/03/14 09:30:52;;;;;;;13.23;6.35;;;;;;;11.97;44.33;103037.56;5065410;28;20048;-61
2022/03/14 09:33:19;;;;;;;9.82;5.68;;;;;;;12.06;44.13;103039.09;5068030;28;20127;-61
2022/03/14 09:35:46;;;;;;;6.43;4.18;;;;;;;12.07;43.91;103048.72;5068316;28;20048;-62
2022/03/14 09:38:15;;;;;;;8.18;5.55;;;;;;;12.14;43.57;103050.31;5066327;28;20044;-60
2022/03/14 09:40:43;;;;;;;8.15;4.90;;;;;;;12.11;43.56;103049.53;5068221;28;20041;-60
2022/03/14 09:43:10;;;;;;;7.82;5.05;;;;;;;12.02;43.65;103051.47;5068428;28;20044;-61
2022/03/14 09:45:39;;;;;;;7.72;5.40;;;;;;;11.99;43.38;103058.59;5067132;28;20832;-60
2022/03/14 09:48:11;;;;;;;8.90;5.05;;;;;;;12.02;43.53;103059.38;5068446;28;20416;-63
2022/03/14 09:50:39;;;;;;;9.48;6.18;;;;;;;12.08;43.38;103056.59;5065790;28;20041;-61
2022/03/14 09:53:09;;;;;;;11.32;6.32;;;;;;;12.18;43.26;103056.38;5068598;28;20098;-63
2022/03/14 09:55:41;;;;;;;8.55;5.90;;;;;;;12.18;43.15;103059.84;5066064;28;20114;-61
2022/03/14 09:58:10;;;;;;;44.65;29.65;;;;;;;12.27;42.82;103061.38;5067924;28;20102;-61
2022/03/14 10:00:37;;;;;;;27.83;22.25;;;;;;;12.51;42.56;103059.84;5067770;28;20044;-64
2022/03/14 10:03:10;;;;;;;24.13;21.63;;;;;;;12.58;42.25;103048.25;5064548;28;20570;-61
2022/03/14 10:05:37;;;;;;;29.48;26.52;;;;;;;12.63;42.00;103056.00;5067661;28;20797;-61
2022/03/14 10:08:04;;;;;;;17.33;13.23;;;;;;;12.73;41.87;103049.59;5066810;28;20111;-65
2022/03/14 10:10:31;;;;;;;13.98;9.82;;;;;;;12.76;41.83;103046.00;5068316;28;20055;-61
2022/03/14 10:12:58;;;;;;;22.58;19.42;;;;;;;12.67;42.11;103051.50;5067591;28;20413;-61
2022/03/14 10:15:26;;;;;;;20.58;14.98;;;;;;;12.86;42.09;103059.75;5068009;28;20098;-61
2022/03/14 10:17:54;;;;;;;68.35;43.10;;;;;;;12.61;42.57;103059.59;5068032;28;20051;-61
2022/03/14 10:20:22;;;;;;;60.65;38.75;;;;;;;12.46;43.09;103067.00;5067332;28;20044;-61
2022/03/14 10:22:50;;;;;;;85.15;52.80;;;;;;;12.36;43.41;103062.91;5067683;28;20048;-61
2022/03/14 10:25:20;;;;;;;61.58;36.17;;;;;;;12.49;43.25;103048.47;5068605;28;20044;-61
2022/03/14 10:27:49;;;;;;;30.17;17.83;;;;;;;12.62;42.74;103051.66;5067563;28;20048;-61
2022/03/14 10:30:31;;;;;;;50.88;35.50;;;;;;;12.50;43.00;103046.72;5067187;28;20060;-68
2022/03/14 10:33:09;;;;;;;34.63;24.25;;;;;;;12.51;42.79;103035.28;5065893;28;20080;-61
2022/03/14 10:35:37;;;;;;;25.08;17.65;;;;;;;12.48;42.77;103033.59;5064707;28;20459;-61
2022/03/14 10:38:06;;;;;;;31.98;18.63;;;;;;;12.64;42.62;103033.16;5066761;28;20173;-61
2022/03/14 10:40:37;;;;;;;25.13;15.95;;;;;;;12.76;42.35;103024.91;5066748;28;20076;-61
2022/03/14 10:43:32;;;;;;;29.23;22.42;;;;;;;12.65;42.41;103027.00;5067014;28;20044;-61
2022/03/14 10:46:00;;;;;;;18.45;14.07;;;;;;;12.62;42.52;103034.97;5042068;28;20094;-60
2022/03/14 10:48:43;;;;;;;29.83;21.17;;;;;;;12.60;42.70;103034.19;5048339;28;20403;-61
2022/03/14 10:51:12;;;;;;;23.23;19.23;;;;;;;12.65;42.74;103034.91;5063882;28;20051;-61
2022/03/14 10:53:41;;;;;;;24.35;16.77;;;;;;;12.67;42.60;103038.34;5060348;28;20049;-61
2022/03/14 10:56:08;;;;;;;32.55;21.85;;;;;;;12.71;42.71;103037.38;5066004;28;20048;-62
2022/03/14 10:58:36;;;;;;;37.22;25.95;;;;;;;12.66;42.65;103040.13;5067448;28;20049;-61
2022/03/14 11:01:07;;;;;;;36.38;26.75;;;;;;;12.63;42.54;103045.47;5067467;28;20047;-65
2022/03/14 11:03:37;;;;;;;37.67;23.92;;;;;;;12.70;42.25;103046.16;5066064;28;20045;-61
2022/03/14 11:06:14;;;;;;;26.48;19.63;;;;;;;12.74;42.35;103046.03;5065242;28;20048;-62
2022/03/14 11:08:43;;;;;;;33.00;22.67;;;;;;;12.79;42.34;103045.03;5066404;28;20045;-63
2022/03/14 11:11:15;;;;;;;19.45;14.70;;;;;;;12.82;42.27;103037.88;5066406;28;20044;-61
2022/03/14 11:13:46;;;;;;;27.23;20.98;;;;;;;12.98;41.86;103025.13;5065521;28;20489;-61
2022/03/14 11:16:21;;;;;;;19.70;14.05;;;;;;;13.07;41.72;103029.28;5066122;28;20133;-60
2022/03/14 11:18:49;;;;;;;35.45;21.55;;;;;;;13.20;41.40;103024.47;5066188;28;20059;-68
2022/03/14 11:21:19;;;;;;;54.83;38.33;;;;;;;13.22;41.21;103023.50;5066167;28;20044;-61